createdAt,value
2023-03-30T00:00:54.964Z,752.00
2023-03-30T00:04:54.971Z,753.00
2023-03-30T00:08:55.033Z,750.00
2023-03-30T00:12:55.020Z,757.00
2023-03-30T00:16:55.149Z,758.00
2023-03-30T00:20:55.066Z,755.00
2023-03-30T00:24:55.138Z,750.00
2023-03-30T00:28:55.173Z,743.00
2023-03-30T00:32:55.264Z,745.00
2023-03-30T00:36:55.203Z,748.00
2023-03-30T00:40:55.242Z,737.00
2023-03-30T00:44:55.332Z,735.00
2023-03-30T00:48:55.315Z,736.00
2023-03-30T00:52:55.448Z,736.00
2023-03-30T00:56:55.448Z,739.00
2023-03-30T01:00:55.485Z,743.00
2023-03-30T01:04:55.495Z,739.00
2023-03-30T01:08:55.512Z,732.00
2023-03-30T01:12:55.656Z,727.00
2023-03-30T01:16:55.624Z,727.00
2023-03-30T01:20:55.715Z,728.00
2023-03-30T01:24:55.821Z,723.00
2023-03-30T01:28:55.797Z,722.00
2023-03-30T01:32:55.938Z,724.00
2023-03-30T01:36:55.946Z,724.00
2023-03-30T01:40:55.974Z,721.00
2023-03-30T01:44:56.069Z,723.00
2023-03-30T01:48:56.105Z,721.00
2023-03-30T01:52:56.191Z,717.00
2023-03-30T01:56:56.314Z,715.00
2023-03-30T02:00:56.360Z,712.00
2023-03-30T02:04:56.446Z,711.00
2023-03-30T02:08:56.522Z,706.00
2023-03-30T02:12:56.608Z,711.00
2023-03-30T02:16:56.733Z,708.00
2023-03-30T02:20:56.808Z,707.00
2023-03-30T02:24:56.845Z,705.00
2023-03-30T02:28:56.922Z,709.00
2023-03-30T02:32:57.010Z,705.00
2023-03-30T02:36:57.032Z,703.00
2023-03-30T02:40:57.129Z,694.00
2023-03-30T02:44:57.229Z,695.00
2023-03-30T02:48:57.280Z,695.00
2023-03-30T02:52:57.357Z,691.00
2023-03-30T02:56:57.498Z,698.00
2023-03-30T03:00:59.362Z,702.00
2023-03-30T03:04:57.561Z,695.00
2023-03-30T03:08:57.637Z,691.00
2023-03-30T03:12:57.721Z,694.00
2023-03-30T03:16:57.877Z,695.00
2023-03-30T03:20:57.868Z,696.00
2023-03-30T03:24:57.905Z,696.00
2023-03-30T03:28:58.020Z,699.00
2023-03-30T03:32:58.151Z,695.00
2023-03-30T03:36:58.113Z,696.00
2023-03-30T03:40:58.227Z,699.00
2023-03-30T03:44:58.665Z,694.00
2023-03-30T03:48:58.345Z,692.00
2023-03-30T03:52:58.446Z,692.00
2023-03-30T03:56:58.579Z,691.00
2023-03-30T04:00:58.636Z,691.00
2023-03-30T04:04:58.684Z,688.00
2023-03-30T04:08:58.682Z,679.00
2023-03-30T04:12:58.744Z,676.00
2023-03-30T04:16:58.815Z,678.00
2023-03-30T04:20:58.906Z,681.00
2023-03-30T04:24:58.989Z,673.00
2023-03-30T04:28:59.033Z,671.00
2023-03-30T04:32:59.168Z,675.00
2023-03-30T04:36:59.213Z,678.00
2023-03-30T04:40:59.323Z,680.00
2023-03-30T04:44:59.461Z,676.00
2023-03-30T04:48:59.554Z,671.00
2023-03-30T04:52:59.688Z,666.00
2023-03-30T04:56:59.897Z,665.00
2023-03-30T05:01:00.013Z,660.00
2023-03-30T05:05:00.154Z,657.00
2023-03-30T05:09:00.249Z,655.00
2023-03-30T05:13:00.358Z,660.00
2023-03-30T05:17:00.544Z,658.00
2023-03-30T05:21:00.590Z,654.00
2023-03-30T05:25:00.689Z,654.00
2023-03-30T05:29:00.825Z,654.00
2023-03-30T05:33:00.965Z,654.00
2023-03-30T05:37:01.108Z,657.00
2023-03-30T05:41:02.372Z,689.00
2023-03-30T05:45:01.726Z,782.00
2023-03-30T05:49:01.443Z,917.00
2023-03-30T05:53:01.729Z,721.00
2023-03-30T05:57:01.780Z,814.00
2023-03-30T06:01:01.905Z,997.00
2023-03-30T06:05:01.449Z,1162.00
2023-03-30T06:09:01.328Z,1273.00
2023-03-30T06:13:01.280Z,1385.00
2023-03-30T06:17:01.369Z,1557.00
2023-03-30T06:21:01.317Z,1378.00
2023-03-30T06:25:01.179Z,1164.00
2023-03-30T06:29:01.152Z,1519.00
2023-03-30T06:33:01.264Z,1544.00
2023-03-30T06:37:01.103Z,1606.00
2023-03-30T06:41:01.627Z,1681.00
2023-03-30T06:45:01.292Z,1782.00
2023-03-30T06:49:01.742Z,1874.00
2023-03-30T06:53:01.741Z,1914.00
2023-03-30T06:57:01.808Z,2006.00
2023-03-30T07:01:01.977Z,2189.00
2023-03-30T07:05:01.892Z,2261.00
2023-03-30T07:09:01.989Z,2318.00
2023-03-30T07:13:01.892Z,2380.00
2023-03-30T07:17:01.903Z,2447.00
2023-03-30T07:21:02.154Z,2488.00
2023-03-30T07:25:01.873Z,2564.00
2023-03-30T07:29:02.052Z,2645.00
2023-03-30T07:33:02.441Z,2412.00
2023-03-30T07:37:02.275Z,2273.00
2023-03-30T07:41:02.341Z,1992.00
2023-03-30T07:45:02.762Z,1341.00
2023-03-30T07:49:02.775Z,1593.00
2023-03-30T07:53:02.754Z,1029.00
2023-03-30T07:57:02.854Z,855.00
2023-03-30T08:01:03.616Z,1056.00
2023-03-30T08:05:03.179Z,1198.00
2023-03-30T08:09:03.293Z,1336.00
2023-03-30T08:13:03.408Z,1482.00
2023-03-30T08:17:03.541Z,1584.00
2023-03-30T08:21:04.200Z,1702.00
2023-03-30T08:25:03.834Z,1847.00
2023-03-30T08:29:04.278Z,1957.00
2023-03-30T08:33:06.823Z,1997.00
2023-03-30T08:37:04.301Z,2130.00
2023-03-30T08:41:04.530Z,2160.00
2023-03-30T08:45:03.812Z,2189.00
2023-03-30T08:49:03.737Z,2276.00
2023-03-30T08:53:03.807Z,1900.00
2023-03-30T08:57:03.834Z,1057.00
2023-03-30T09:01:04.008Z,878.00
2023-03-30T09:05:03.619Z,916.00
2023-03-30T09:09:03.599Z,1035.00
2023-03-30T09:13:03.506Z,1019.00
2023-03-30T09:17:03.535Z,1080.00
2023-03-30T09:21:04.025Z,1025.00
2023-03-30T09:25:03.447Z,1064.00
2023-03-30T09:29:03.518Z,1088.00
2023-03-30T09:33:03.663Z,1223.00
2023-03-30T09:37:03.677Z,1343.00
2023-03-30T09:41:03.911Z,1415.00
2023-03-30T09:45:04.351Z,1506.00
2023-03-30T09:49:04.305Z,1354.00
2023-03-30T09:53:04.822Z,892.00
2023-03-30T09:57:04.875Z,1041.00
2023-03-30T10:01:04.487Z,1141.00
2023-03-30T10:05:04.482Z,1111.00
2023-03-30T10:09:04.517Z,1038.00
2023-03-30T10:13:04.811Z,1055.00
2023-03-30T10:17:04.511Z,1073.00
2023-03-30T10:21:04.539Z,968.00
2023-03-30T10:25:04.909Z,970.00
2023-03-30T10:29:04.482Z,982.00
2023-03-30T10:33:04.687Z,918.00
2023-03-30T10:37:04.550Z,853.00
2023-03-30T10:41:04.521Z,1082.00
2023-03-30T10:45:04.850Z,1031.00
2023-03-30T10:49:04.462Z,1180.00
2023-03-30T10:53:04.589Z,1279.00
2023-03-30T10:57:04.573Z,1278.00
2023-03-30T11:01:04.563Z,1300.00
2023-03-30T11:05:04.490Z,1295.00
2023-03-30T11:09:04.425Z,1358.00
2023-03-30T11:13:04.864Z,1318.00
2023-03-30T11:17:04.434Z,1363.00
2023-03-30T11:21:04.324Z,1398.00
2023-03-30T11:25:04.364Z,1460.00
2023-03-30T11:29:04.389Z,1443.00
2023-03-30T11:33:04.922Z,1480.00
2023-03-30T11:37:04.421Z,1505.00
2023-03-30T11:41:04.232Z,1497.00
2023-03-30T11:45:04.473Z,1470.00
2023-03-30T11:49:04.620Z,1428.00
2023-03-30T11:53:04.863Z,1373.00
2023-03-30T11:57:05.414Z,1334.00
2023-03-30T12:01:05.357Z,1313.00
2023-03-30T12:05:05.468Z,1263.00
2023-03-30T12:09:05.621Z,1246.00
2023-03-30T12:13:05.870Z,1255.00
2023-03-30T12:17:06.018Z,1240.00
2023-03-30T12:21:06.234Z,1225.00
2023-03-30T12:25:06.473Z,1209.00
2023-03-30T12:33:06.605Z,1177.00
2023-03-30T12:37:06.536Z,1142.00
2023-03-30T12:41:06.476Z,1130.00
2023-03-30T12:45:06.446Z,1129.00
2023-03-30T12:49:06.413Z,1121.00
2023-03-30T12:53:06.391Z,1089.00
2023-03-30T12:57:06.375Z,1061.00
2023-03-30T13:01:06.329Z,1040.00
2023-03-30T13:05:06.269Z,1006.00
2023-03-30T13:09:06.220Z,985.00
2023-03-30T13:13:06.200Z,962.00
2023-03-30T13:17:06.457Z,940.00
2023-03-30T13:21:06.501Z,923.00
2023-03-30T13:25:06.913Z,918.00
2023-03-30T13:29:06.865Z,931.00
2023-03-30T13:33:07.076Z,944.00
2023-03-30T13:37:07.244Z,960.00
2023-03-30T13:41:07.413Z,949.00
2023-03-30T13:45:07.587Z,897.00
2023-03-30T13:49:07.798Z,887.00
2023-03-30T13:53:08.028Z,878.00
2023-03-30T13:57:08.218Z,864.00
2023-03-30T14:01:08.897Z,871.00
2023-03-30T14:05:08.640Z,875.00
2023-03-30T14:09:08.876Z,874.00
2023-03-30T14:13:09.089Z,870.00
2023-03-30T14:17:09.423Z,869.00
2023-03-30T14:21:09.439Z,873.00
2023-03-30T14:25:09.660Z,888.00
2023-03-30T14:29:11.362Z,899.00
2023-03-30T14:33:09.902Z,898.00
2023-03-30T14:37:09.784Z,901.00
2023-03-30T14:41:09.737Z,913.00
2023-03-30T14:45:09.709Z,915.00
2023-03-30T14:49:09.652Z,902.00
2023-03-30T14:53:09.609Z,895.00
2023-03-30T14:57:09.625Z,892.00
2023-03-30T15:01:10.035Z,894.00
2023-03-30T15:05:09.718Z,890.00
2023-03-30T15:09:09.975Z,896.00
2023-03-30T15:13:10.151Z,886.00
2023-03-30T15:17:10.412Z,881.00
2023-03-30T15:21:10.580Z,879.00
2023-03-30T15:25:10.802Z,877.00
2023-03-30T15:29:10.995Z,868.00
2023-03-30T15:33:11.233Z,885.00
2023-03-30T15:37:11.439Z,885.00
2023-03-30T15:41:11.645Z,877.00
2023-03-30T15:45:11.863Z,871.00
2023-03-30T15:49:12.087Z,877.00
2023-03-30T15:53:12.302Z,876.00
2023-03-30T15:57:12.555Z,873.00
2023-03-30T16:01:12.704Z,873.00
2023-03-30T16:05:12.755Z,867.00
2023-03-30T16:09:12.605Z,862.00
2023-03-30T16:13:12.582Z,853.00
2023-03-30T16:17:12.546Z,848.00
2023-03-30T16:21:12.607Z,846.00
2023-03-30T16:25:12.507Z,849.00
2023-03-30T16:29:12.480Z,849.00
2023-03-30T16:33:12.437Z,851.00
2023-03-30T16:37:12.403Z,842.00
2023-03-30T16:41:12.511Z,844.00
2023-03-30T16:45:12.468Z,848.00
2023-03-30T16:49:12.452Z,841.00
2023-03-30T16:53:12.520Z,830.00
2023-03-30T16:57:12.408Z,822.00
2023-03-30T17:01:12.335Z,825.00
2023-03-30T17:05:12.410Z,812.00
2023-03-30T17:09:12.286Z,818.00
2023-03-30T17:13:12.237Z,820.00
2023-03-30T17:17:12.231Z,823.00
2023-03-30T17:21:12.256Z,820.00
2023-03-30T17:25:12.239Z,821.00
2023-03-30T17:29:12.235Z,818.00
2023-03-30T17:33:12.139Z,821.00
2023-03-30T17:37:12.123Z,810.00
2023-03-30T17:41:12.063Z,801.00
2023-03-30T17:45:12.105Z,800.00
2023-03-30T17:49:12.022Z,798.00
2023-03-30T17:53:11.967Z,796.00
2023-03-30T17:57:11.949Z,804.00
2023-03-30T18:01:12.058Z,800.00
2023-03-30T18:05:12.209Z,801.00
2023-03-30T18:09:12.349Z,791.00
2023-03-30T18:13:12.535Z,785.00
2023-03-30T18:17:12.672Z,789.00
2023-03-30T18:21:12.902Z,782.00
2023-03-30T18:25:19.106Z,776.00
2023-03-30T18:29:14.000Z,762.00
2023-03-30T18:33:13.036Z,762.00
2023-03-30T18:37:12.887Z,764.00
2023-03-30T18:41:12.928Z,759.00
2023-03-30T18:45:12.911Z,758.00
2023-03-30T18:49:12.827Z,757.00
2023-03-30T18:53:12.849Z,754.00
2023-03-30T18:57:12.878Z,754.00
2023-03-30T19:01:12.981Z,752.00
2023-03-30T19:05:12.976Z,751.00
2023-03-30T19:09:12.998Z,752.00
2023-03-30T19:13:13.016Z,752.00
2023-03-30T19:17:13.007Z,746.00
2023-03-30T19:21:13.050Z,745.00
2023-03-30T19:25:13.048Z,738.00
2023-03-30T19:29:13.030Z,738.00
2023-03-30T19:33:13.017Z,740.00
2023-03-30T19:37:13.000Z,735.00
2023-03-30T19:41:12.993Z,732.00
2023-03-30T19:45:12.981Z,732.00
2023-03-30T19:49:13.013Z,723.00
2023-03-30T19:53:13.001Z,727.00
2023-03-30T19:57:13.055Z,722.00
2023-03-30T20:01:12.982Z,723.00
2023-03-30T20:05:13.070Z,718.00
2023-03-30T20:09:12.959Z,716.00
2023-03-30T20:13:12.943Z,715.00
2023-03-30T20:17:12.931Z,713.00
2023-03-30T20:21:12.897Z,711.00
2023-03-30T20:25:12.958Z,710.00
2023-03-30T20:29:12.900Z,708.00
2023-03-30T20:33:12.924Z,711.00
2023-03-30T20:37:12.876Z,710.00
2023-03-30T20:41:12.868Z,710.00
2023-03-30T20:45:12.844Z,711.00
2023-03-30T20:49:12.848Z,706.00
2023-03-30T20:53:12.882Z,703.00
2023-03-30T20:57:12.910Z,698.00
2023-03-30T21:01:12.900Z,697.00
2023-03-30T21:05:12.911Z,693.00
2023-03-30T21:09:12.963Z,697.00
2023-03-30T21:13:12.934Z,699.00
2023-03-30T21:17:12.991Z,696.00
2023-03-30T21:21:12.965Z,698.00
2023-03-30T21:25:12.977Z,692.00
2023-03-30T21:29:13.034Z,691.00
2023-03-30T21:33:13.077Z,690.00
2023-03-30T21:37:13.041Z,683.00
2023-03-30T21:41:13.095Z,685.00
2023-03-30T21:45:13.129Z,686.00
2023-03-30T21:49:13.146Z,682.00
2023-03-30T21:53:13.212Z,678.00
2023-03-30T21:57:13.331Z,679.00
2023-03-30T22:01:13.315Z,675.00
2023-03-30T22:05:13.308Z,674.00
2023-03-30T22:09:13.349Z,678.00
2023-03-30T22:13:13.401Z,675.00
2023-03-30T22:17:13.450Z,666.00
2023-03-30T22:21:13.507Z,666.00
2023-03-30T22:25:13.582Z,667.00
2023-03-30T22:29:13.634Z,662.00
2023-03-30T22:33:13.698Z,662.00
2023-03-30T22:37:13.742Z,664.00
2023-03-30T22:41:13.798Z,662.00
2023-03-30T22:45:13.842Z,662.00
2023-03-30T22:49:13.918Z,664.00
2023-03-30T22:53:13.949Z,667.00
2023-03-30T22:57:14.051Z,666.00
2023-03-30T23:01:14.107Z,667.00
2023-03-30T23:05:14.131Z,662.00
2023-03-30T23:09:14.217Z,660.00
2023-03-30T23:13:14.287Z,661.00
2023-03-30T23:17:14.337Z,657.00
2023-03-30T23:21:14.420Z,655.00
2023-03-30T23:25:14.492Z,652.00
2023-03-30T23:29:14.553Z,655.00
2023-03-30T23:33:14.626Z,654.00
2023-03-30T23:37:14.691Z,652.00
2023-03-30T23:41:14.796Z,650.00
2023-03-30T23:45:14.831Z,650.00
2023-03-30T23:49:14.906Z,648.00
2023-03-30T23:53:15.003Z,649.00
2023-03-30T23:57:15.154Z,646.00
